createdAt,value
2023-05-05T00:00:28.870Z,5.27
2023-05-05T00:02:57.000Z,6.00
2023-05-05T00:05:25.415Z,5.35
2023-05-05T00:07:53.143Z,5.03
2023-05-05T00:10:20.941Z,5.25
2023-05-05T00:12:48.941Z,5.30
2023-05-05T00:15:19.121Z,5.30
2023-05-05T00:17:46.794Z,5.47
2023-05-05T00:20:14.942Z,5.60
2023-05-05T00:22:42.663Z,4.57
2023-05-05T00:25:10.782Z,5.07
2023-05-05T00:27:40.262Z,5.95
2023-05-05T00:30:09.598Z,6.10
2023-05-05T00:32:38.866Z,6.07
2023-05-05T00:35:07.238Z,5.20
2023-05-05T00:37:35.000Z,6.45
2023-05-05T00:40:03.113Z,6.25
2023-05-05T00:42:39.407Z,7.13
2023-05-05T00:45:08.645Z,6.60
2023-05-05T00:47:38.510Z,6.87
2023-05-05T00:50:09.251Z,8.93
2023-05-05T00:52:37.864Z,9.13
2023-05-05T00:55:07.096Z,9.13
2023-05-05T00:57:36.646Z,9.30
2023-05-05T01:00:06.017Z,9.53
2023-05-05T01:02:34.248Z,10.30
2023-05-05T01:05:03.693Z,10.15
2023-05-05T01:07:37.695Z,9.97
2023-05-05T01:10:20.198Z,10.53
2023-05-05T01:12:54.960Z,10.87
2023-05-05T01:15:32.943Z,8.57
2023-05-05T01:18:08.036Z,9.93
2023-05-05T01:20:49.071Z,9.37
2023-05-05T01:23:28.350Z,10.53
2023-05-05T01:26:11.920Z,10.77
2023-05-05T01:29:01.647Z,10.37
2023-05-05T01:31:51.684Z,10.33
2023-05-05T01:34:25.128Z,10.27
2023-05-05T01:36:59.360Z,8.53
2023-05-05T01:39:34.480Z,8.13
2023-05-05T01:42:07.486Z,10.47
2023-05-05T01:44:37.699Z,10.33
2023-05-05T01:47:07.573Z,9.30
2023-05-05T01:49:37.656Z,10.33
2023-05-05T01:52:07.039Z,10.00
2023-05-05T01:54:36.184Z,9.77
2023-05-05T01:57:05.884Z,9.57
2023-05-05T01:59:35.053Z,9.87
2023-05-05T02:02:04.312Z,10.00
2023-05-05T02:04:34.554Z,9.10
2023-05-05T02:07:04.350Z,9.70
2023-05-05T02:09:33.553Z,9.97
2023-05-05T02:12:02.672Z,9.43
2023-05-05T02:14:31.424Z,8.07
2023-05-05T02:16:59.530Z,8.63
2023-05-05T02:19:30.430Z,8.10
2023-05-05T02:21:59.584Z,7.57
2023-05-05T02:24:27.466Z,7.63
2023-05-05T02:26:58.070Z,8.23
2023-05-05T02:29:32.333Z,6.73
2023-05-05T02:32:04.610Z,6.30
2023-05-05T02:34:36.731Z,7.13
2023-05-05T02:37:11.150Z,8.27
2023-05-05T02:39:44.118Z,7.23
2023-05-05T02:42:16.385Z,5.80
2023-05-05T02:44:46.515Z,7.60
2023-05-05T02:47:14.478Z,7.47
2023-05-05T02:49:43.547Z,6.50
2023-05-05T02:52:12.692Z,6.40
2023-05-05T02:54:40.412Z,7.40
2023-05-05T02:57:10.769Z,7.18
2023-05-05T02:59:47.447Z,5.33
2023-05-05T03:02:20.653Z,6.20
2023-05-05T03:04:55.224Z,5.93
2023-05-05T03:07:28.723Z,5.60
2023-05-05T03:10:03.771Z,5.30
2023-05-05T03:12:38.444Z,4.97
2023-05-05T03:15:09.988Z,5.97
2023-05-05T03:17:38.750Z,5.60
2023-05-05T03:20:08.844Z,5.70
2023-05-05T03:22:38.542Z,5.70
2023-05-05T03:25:07.308Z,4.70
2023-05-05T03:27:34.973Z,5.10
2023-05-05T03:30:02.894Z,5.30
2023-05-05T03:32:30.995Z,4.88
2023-05-05T03:34:58.753Z,4.53
2023-05-05T03:37:26.399Z,4.77
2023-05-05T03:39:55.435Z,4.33
2023-05-05T03:42:23.092Z,4.50
2023-05-05T03:44:53.443Z,4.23
2023-05-05T03:47:21.151Z,4.30
2023-05-05T03:49:48.949Z,4.55
2023-05-05T03:52:16.666Z,3.75
2023-05-05T03:54:46.191Z,4.57
2023-05-05T03:57:15.263Z,4.40
2023-05-05T03:59:42.974Z,4.90
2023-05-05T04:02:10.711Z,4.67
2023-05-05T04:04:38.475Z,5.07
2023-05-05T04:07:06.167Z,4.75
2023-05-05T04:09:33.861Z,5.47
2023-05-05T04:12:01.611Z,5.43
2023-05-05T04:14:30.731Z,5.97
2023-05-05T04:16:58.394Z,6.20
2023-05-05T04:19:26.141Z,5.17
2023-05-05T04:21:53.831Z,6.17
2023-05-05T04:24:24.722Z,6.33
2023-05-05T04:26:52.412Z,6.30
2023-05-05T04:29:20.110Z,5.97
2023-05-05T04:31:50.028Z,5.80
2023-05-05T04:34:17.817Z,5.43
2023-05-05T04:36:45.543Z,5.20
2023-05-05T04:39:13.217Z,4.97
2023-05-05T04:41:41.009Z,4.90
2023-05-05T04:44:08.770Z,5.05
2023-05-05T04:46:36.491Z,5.30
2023-05-05T04:49:05.915Z,4.90
2023-05-05T04:51:33.617Z,4.43
2023-05-05T04:54:01.318Z,6.10
2023-05-05T04:56:31.721Z,5.23
2023-05-05T04:58:59.666Z,5.43
2023-05-05T05:01:27.407Z,5.28
2023-05-05T05:03:55.096Z,5.38
2023-05-05T05:06:24.203Z,6.18
2023-05-05T05:08:52.034Z,7.00
2023-05-05T05:11:19.772Z,6.28
2023-05-05T05:13:47.416Z,5.30
2023-05-05T05:16:15.228Z,7.00
2023-05-05T05:18:43.099Z,7.13
2023-05-05T05:21:10.772Z,7.55
2023-05-05T05:23:39.876Z,7.93
2023-05-05T05:26:07.552Z,6.70
2023-05-05T05:28:35.282Z,5.83
2023-05-05T05:31:03.016Z,8.20
2023-05-05T05:33:30.705Z,8.20
2023-05-05T05:35:58.343Z,8.80
2023-05-05T05:38:26.089Z,8.53
2023-05-05T05:40:55.455Z,8.70
2023-05-05T05:43:23.098Z,9.90
2023-05-05T05:45:51.988Z,10.03
2023-05-05T05:48:20.043Z,10.93
2023-05-05T05:50:47.756Z,10.95
2023-05-05T05:53:15.410Z,11.23
2023-05-05T05:55:43.074Z,11.40
2023-05-05T05:58:12.087Z,10.73
2023-05-05T06:00:39.821Z,11.77
2023-05-05T06:03:07.919Z,10.35
2023-05-05T06:05:35.748Z,11.43
2023-05-05T06:08:03.383Z,9.93
2023-05-05T06:10:31.276Z,12.10
2023-05-05T06:12:59.089Z,11.45
2023-05-05T06:15:28.247Z,12.88
2023-05-05T06:17:55.986Z,12.43
2023-05-05T06:20:23.734Z,13.02
2023-05-05T06:22:51.530Z,12.98
2023-05-05T06:25:19.154Z,13.68
2023-05-05T06:27:47.148Z,13.10
2023-05-05T06:30:15.613Z,12.88
2023-05-05T06:32:44.662Z,13.13
2023-05-05T06:35:12.346Z,13.27
2023-05-05T06:37:40.065Z,12.25
2023-05-05T06:40:10.367Z,13.25
2023-05-05T06:42:38.394Z,13.43
2023-05-05T06:45:06.919Z,12.85
2023-05-05T06:47:34.752Z,13.52
2023-05-05T06:50:03.885Z,12.82
2023-05-05T06:52:31.628Z,11.97
2023-05-05T06:54:59.374Z,11.80
2023-05-05T06:57:27.005Z,11.55
2023-05-05T06:59:54.915Z,10.60
2023-05-05T07:02:24.020Z,11.20
2023-05-05T07:04:55.409Z,11.07
2023-05-05T07:07:24.562Z,10.00
2023-05-05T07:09:52.207Z,10.10
2023-05-05T07:12:20.038Z,10.00
2023-05-05T07:14:47.871Z,9.40
2023-05-05T07:17:16.033Z,9.70
2023-05-05T07:19:44.175Z,9.93
2023-05-05T07:22:11.860Z,9.93
2023-05-05T07:24:41.175Z,8.50
2023-05-05T07:27:09.006Z,8.17
2023-05-05T07:29:36.732Z,8.63
2023-05-05T07:32:04.629Z,8.35
2023-05-05T07:34:34.216Z,7.90
2023-05-05T07:37:01.933Z,9.43
2023-05-05T07:39:29.550Z,9.20
2023-05-05T07:41:58.660Z,8.32
2023-05-05T07:44:26.671Z,8.47
2023-05-05T07:46:54.489Z,7.95
2023-05-05T07:49:22.376Z,6.85
2023-05-05T07:51:50.274Z,7.38
2023-05-05T07:54:18.346Z,7.60
2023-05-05T07:56:46.234Z,7.03
2023-05-05T07:59:15.469Z,7.10
2023-05-05T08:01:43.479Z,6.73
2023-05-05T08:04:11.245Z,6.40
2023-05-05T08:06:39.012Z,6.32
2023-05-05T08:09:06.684Z,6.72
2023-05-05T08:11:34.524Z,5.68
2023-05-05T08:14:02.185Z,5.60
2023-05-05T08:16:31.397Z,5.18
2023-05-05T08:18:59.177Z,5.55
2023-05-05T08:21:27.699Z,4.85
2023-05-05T08:23:55.405Z,3.88
2023-05-05T08:26:23.563Z,3.55
2023-05-05T08:28:55.092Z,6.20
2023-05-05T08:31:22.952Z,4.90
2023-05-05T08:33:51.906Z,3.67
2023-05-05T08:36:19.535Z,4.55
2023-05-05T08:38:47.552Z,4.00
2023-05-05T08:41:18.535Z,4.32
2023-05-05T08:43:47.287Z,4.53
2023-05-05T08:46:15.129Z,4.80
2023-05-05T08:48:45.882Z,4.72
2023-05-05T08:51:19.480Z,4.38
2023-05-05T08:53:53.416Z,4.03
2023-05-05T08:56:22.338Z,4.43
2023-05-05T08:58:51.886Z,4.75
2023-05-05T09:01:19.643Z,4.80
2023-05-05T09:03:47.383Z,4.25
2023-05-05T09:06:16.761Z,4.22
2023-05-05T09:08:44.484Z,4.50
2023-05-05T09:11:12.227Z,5.07
2023-05-05T09:13:40.055Z,3.90
2023-05-05T09:16:08.357Z,4.55
2023-05-05T09:18:38.241Z,5.28
2023-05-05T09:21:22.917Z,4.30
2023-05-05T09:24:10.476Z,3.60
2023-05-05T09:26:41.316Z,4.15
2023-05-05T09:29:09.046Z,4.82
2023-05-05T09:31:37.970Z,5.70
2023-05-05T09:34:15.181Z,4.50
2023-05-05T09:36:47.580Z,4.38
2023-05-05T09:39:17.765Z,5.65
2023-05-05T09:41:45.531Z,5.38
2023-05-05T09:44:15.997Z,5.78
2023-05-05T09:46:51.872Z,4.38
2023-05-05T09:49:23.406Z,5.30
2023-05-05T09:51:52.896Z,5.03
2023-05-05T09:54:24.561Z,3.63
2023-05-05T09:56:52.479Z,2.80
2023-05-05T09:59:22.983Z,2.90
2023-05-05T10:06:13.386Z,2.37
2023-05-05T10:09:04.508Z,2.50
2023-05-05T10:11:48.779Z,2.50
2023-05-05T10:14:21.281Z,2.70
2023-05-05T10:19:49.095Z,2.77
2023-05-05T10:24:52.162Z,2.03
2023-05-05T10:27:21.534Z,2.10
2023-05-05T10:29:56.126Z,2.60
2023-05-05T10:32:53.972Z,2.60
2023-05-05T10:35:18.272Z,2.20
2023-05-05T10:37:46.477Z,2.50
2023-05-05T10:40:16.579Z,2.58
2023-05-05T10:42:44.699Z,2.37
2023-05-05T10:45:12.434Z,2.75
2023-05-05T10:47:40.976Z,2.80
2023-05-05T10:52:47.946Z,3.10
2023-05-05T10:55:19.344Z,3.17
2023-05-05T10:57:47.465Z,4.50
2023-05-05T11:00:48.754Z,4.40
2023-05-05T11:03:24.231Z,4.93
2023-05-05T11:06:12.532Z,4.43
2023-05-05T11:08:42.055Z,5.20
2023-05-05T11:11:13.053Z,5.00
2023-05-05T11:13:41.566Z,4.00
2023-05-05T11:16:47.908Z,3.78
2023-05-05T11:19:48.227Z,5.20
2023-05-05T11:22:16.700Z,4.23
2023-05-05T11:24:44.821Z,4.72
2023-05-05T11:27:13.853Z,5.18
2023-05-05T11:30:07.195Z,4.70
2023-05-05T11:32:35.899Z,5.27
2023-05-05T11:35:03.921Z,5.80
2023-05-05T11:37:31.565Z,5.63
2023-05-05T11:40:08.670Z,5.40
2023-05-05T11:42:37.970Z,5.77
2023-05-05T11:45:21.438Z,5.87
2023-05-05T11:47:49.359Z,7.13
2023-05-05T11:50:19.903Z,6.32
2023-05-05T11:52:48.712Z,7.50
2023-05-05T11:55:22.130Z,7.23
2023-05-05T11:57:51.534Z,7.23
2023-05-05T12:00:19.981Z,7.53
2023-05-05T12:02:47.867Z,8.73
2023-05-05T12:05:21.145Z,7.85
2023-05-05T12:07:49.108Z,7.10
2023-05-05T12:10:23.737Z,8.77
2023-05-05T12:12:55.205Z,7.53
2023-05-05T12:15:30.772Z,7.53
2023-05-05T12:18:00.105Z,7.03
2023-05-05T12:20:35.050Z,6.87
2023-05-05T12:23:04.391Z,5.60
2023-05-05T12:25:40.252Z,6.80
2023-05-05T12:28:10.114Z,7.30
2023-05-05T12:30:38.032Z,8.30
2023-05-05T12:33:06.900Z,7.40
2023-05-05T12:35:35.273Z,8.57
2023-05-05T12:38:03.142Z,9.05
2023-05-05T12:40:47.908Z,8.90
2023-05-05T12:43:30.366Z,6.53
2023-05-05T12:46:08.594Z,6.60
2023-05-05T12:48:37.919Z,5.82
2023-05-05T12:51:17.248Z,6.03
2023-05-05T12:53:45.587Z,6.67
2023-05-05T12:56:34.724Z,6.05
2023-05-05T12:59:05.450Z,5.67
2023-05-05T13:01:33.479Z,4.27
2023-05-05T13:04:09.715Z,6.32
2023-05-05T13:06:37.918Z,6.47
2023-05-05T13:09:05.821Z,5.88
2023-05-05T13:11:37.123Z,5.97
2023-05-05T13:14:07.776Z,7.93
2023-05-05T13:16:35.968Z,8.97
2023-05-05T13:19:03.712Z,6.68
2023-05-05T13:21:31.537Z,8.45
2023-05-05T13:24:16.238Z,7.70
2023-05-05T13:26:47.025Z,8.60
2023-05-05T13:29:16.419Z,9.63
2023-05-05T13:31:44.294Z,5.87
2023-05-05T13:34:12.111Z,6.57
2023-05-05T13:36:39.749Z,8.40
2023-05-05T13:39:09.282Z,8.07
2023-05-05T13:41:37.062Z,8.60
2023-05-05T13:44:04.933Z,8.50
2023-05-05T13:46:34.028Z,8.38
2023-05-05T13:49:01.715Z,6.03
2023-05-05T13:51:29.484Z,7.00
2023-05-05T13:53:57.156Z,9.32
2023-05-05T13:56:26.329Z,8.55
2023-05-05T13:58:54.365Z,7.47
2023-05-05T14:01:22.229Z,9.82
2023-05-05T14:03:51.358Z,8.50
2023-05-05T14:06:19.282Z,6.40
2023-05-05T14:08:47.168Z,6.25
2023-05-05T14:11:17.073Z,6.47
2023-05-05T14:13:46.436Z,5.87
2023-05-05T14:16:14.829Z,6.00
2023-05-05T14:18:42.526Z,5.50
2023-05-05T14:21:12.266Z,4.00
2023-05-05T14:23:39.997Z,4.63
2023-05-05T14:26:08.929Z,4.65
2023-05-05T14:28:36.730Z,3.40
2023-05-05T14:31:04.515Z,4.23
2023-05-05T14:33:32.191Z,4.00
2023-05-05T14:35:59.943Z,3.70
2023-05-05T14:38:29.033Z,2.83
2023-05-05T14:40:56.875Z,2.70
2023-05-05T14:43:24.486Z,2.85
2023-05-05T14:45:52.698Z,2.50
2023-05-05T14:48:22.262Z,2.25
2023-05-05T14:50:50.141Z,1.80
2023-05-05T14:53:18.918Z,1.50
2023-05-05T14:55:47.936Z,1.33
2023-05-05T14:58:15.591Z,1.50
2023-05-05T15:00:43.337Z,1.20
2023-05-05T15:03:11.127Z,1.42
2023-05-05T15:05:38.835Z,1.40
2023-05-05T15:08:07.042Z,1.43
2023-05-05T15:10:34.659Z,1.17
2023-05-05T15:13:03.776Z,1.23
2023-05-05T15:15:31.516Z,1.07
2023-05-05T15:17:59.262Z,1.10
2023-05-05T15:20:27.108Z,1.23
2023-05-05T15:22:55.091Z,1.05
2023-05-05T15:25:22.970Z,1.50
2023-05-05T15:27:50.949Z,1.40
2023-05-05T15:30:20.033Z,1.20
2023-05-05T15:32:48.016Z,1.40
2023-05-05T15:35:15.761Z,1.80
2023-05-05T15:37:43.505Z,1.47
2023-05-05T15:40:12.148Z,1.60
2023-05-05T15:45:11.955Z,1.60
2023-05-05T15:47:41.067Z,1.23
2023-05-05T15:50:09.562Z,2.07
2023-05-05T15:52:37.262Z,3.08
2023-05-05T15:55:05.637Z,2.50
2023-05-05T15:57:34.387Z,3.10
2023-05-05T16:00:02.184Z,1.90
2023-05-05T16:02:30.011Z,1.65
2023-05-05T16:04:59.112Z,1.85
2023-05-05T16:07:26.968Z,1.97
2023-05-05T16:09:54.575Z,1.75
2023-05-05T16:12:22.470Z,1.60
2023-05-05T16:14:50.197Z,1.80
2023-05-05T16:17:18.168Z,1.77
2023-05-05T16:19:46.215Z,2.05
2023-05-05T16:22:15.429Z,2.05
2023-05-05T16:24:44.277Z,2.20
2023-05-05T16:27:12.087Z,2.40
2023-05-05T16:29:39.828Z,3.53
2023-05-05T16:32:07.578Z,2.30
2023-05-05T16:34:35.337Z,2.35
2023-05-05T16:37:03.400Z,2.83
2023-05-05T16:39:32.945Z,3.00
2023-05-05T16:42:00.730Z,3.10
2023-05-05T16:44:28.387Z,3.25
2023-05-05T16:46:56.076Z,2.95
2023-05-05T16:49:24.328Z,2.70
2023-05-05T16:51:52.469Z,3.50
2023-05-05T16:54:20.181Z,2.85
2023-05-05T16:56:49.305Z,3.35
2023-05-05T16:59:19.063Z,3.37
2023-05-05T17:01:46.932Z,3.63
2023-05-05T17:04:14.840Z,3.67
2023-05-05T17:06:42.599Z,4.13
2023-05-05T17:09:10.302Z,3.85
2023-05-05T17:11:38.091Z,3.78
2023-05-05T17:14:07.107Z,3.33
2023-05-05T17:16:34.945Z,3.87
2023-05-05T17:19:02.622Z,3.47
2023-05-05T17:21:30.336Z,3.58
2023-05-05T17:23:58.034Z,4.20
2023-05-05T17:26:25.758Z,3.55
2023-05-05T17:28:53.465Z,4.05
2023-05-05T17:31:22.548Z,3.13
2023-05-05T17:33:50.182Z,4.00
2023-05-05T17:36:17.868Z,3.80
2023-05-05T17:38:45.487Z,3.55
2023-05-05T17:41:13.198Z,3.53
2023-05-05T17:43:41.008Z,4.05
2023-05-05T17:46:08.679Z,3.83
2023-05-05T17:48:37.871Z,4.38
2023-05-05T17:51:05.715Z,3.70
2023-05-05T17:53:33.437Z,3.70
2023-05-05T17:56:01.188Z,3.35
2023-05-05T17:58:28.934Z,4.05
2023-05-05T18:00:56.675Z,3.53
2023-05-05T18:03:24.472Z,3.22
2023-05-05T18:05:53.717Z,3.65
2023-05-05T18:08:21.574Z,2.90
2023-05-05T18:10:49.353Z,3.30
2023-05-05T18:13:17.001Z,2.72
2023-05-05T18:15:44.746Z,3.20
2023-05-05T18:18:12.513Z,2.88
2023-05-05T18:20:41.018Z,3.85
2023-05-05T18:23:11.121Z,3.80
2023-05-05T18:25:38.849Z,4.20
2023-05-05T18:28:06.524Z,4.13
2023-05-05T18:30:35.688Z,3.38
2023-05-05T18:33:03.489Z,3.17
2023-05-05T18:35:31.724Z,3.28
2023-05-05T18:37:59.543Z,3.22
2023-05-05T18:40:28.627Z,3.33
2023-05-05T18:42:56.708Z,3.30
2023-05-05T18:45:24.530Z,3.30
2023-05-05T18:47:52.453Z,3.63
2023-05-05T18:50:20.212Z,3.72
2023-05-05T18:52:47.857Z,3.38
2023-05-05T18:55:15.721Z,3.83
2023-05-05T18:57:44.808Z,3.28
2023-05-05T19:00:13.411Z,3.70
2023-05-05T19:05:09.952Z,2.70
2023-05-05T19:07:37.878Z,3.40
2023-05-05T19:10:06.320Z,2.63
2023-05-05T19:12:34.071Z,2.22
2023-05-05T19:15:03.476Z,2.50
2023-05-05T19:17:31.182Z,2.77
2023-05-05T19:19:58.892Z,2.80
2023-05-05T19:22:26.710Z,2.78
2023-05-05T19:24:54.442Z,3.35
2023-05-05T19:27:22.179Z,3.38
2023-05-05T19:29:52.348Z,3.05
2023-05-05T19:32:22.268Z,3.00
2023-05-05T19:34:50.615Z,3.00
2023-05-05T19:37:18.316Z,2.97
2023-05-05T19:39:46.024Z,2.73
2023-05-05T19:42:13.699Z,3.43
2023-05-05T19:44:41.330Z,3.50
2023-05-05T19:47:10.868Z,3.47
2023-05-05T19:49:40.291Z,2.90
2023-05-05T19:52:08.021Z,2.90
2023-05-05T19:54:36.154Z,3.38
2023-05-05T19:57:03.864Z,2.90
2023-05-05T19:59:31.745Z,3.37
2023-05-05T20:01:59.485Z,3.53
2023-05-05T20:04:27.272Z,2.83
2023-05-05T20:06:57.234Z,3.10
2023-05-05T20:09:24.926Z,2.70
2023-05-05T20:11:52.574Z,3.33
2023-05-05T20:14:20.176Z,3.73
2023-05-05T20:16:47.955Z,4.90
2023-05-05T20:19:15.653Z,5.15
2023-05-05T20:21:43.264Z,4.40
2023-05-05T20:24:12.475Z,5.10
2023-05-05T20:26:40.081Z,6.27
2023-05-05T20:29:07.685Z,4.67
2023-05-05T20:31:35.897Z,4.13
2023-05-05T20:34:03.752Z,3.92
2023-05-05T20:36:31.416Z,3.67
2023-05-05T20:38:59.088Z,4.53
2023-05-05T20:41:28.176Z,3.87
2023-05-05T20:43:55.788Z,3.87
2023-05-05T20:46:23.645Z,3.97
2023-05-05T20:48:51.356Z,4.13
2023-05-05T20:51:19.135Z,4.20
2023-05-05T20:53:46.772Z,3.93
2023-05-05T20:56:14.455Z,4.50
2023-05-05T20:58:43.499Z,4.90
2023-05-05T21:01:11.299Z,5.43
2023-05-05T21:03:38.977Z,4.85
2023-05-05T21:06:06.909Z,5.03
2023-05-05T21:08:34.886Z,4.65
2023-05-05T21:11:02.651Z,5.35
2023-05-05T21:13:30.567Z,4.37
2023-05-05T21:15:59.627Z,5.30
2023-05-05T21:18:27.706Z,4.93
2023-05-05T21:20:55.596Z,4.00
2023-05-05T21:23:23.357Z,5.72
2023-05-05T21:25:51.045Z,4.55
2023-05-05T21:28:18.729Z,4.63
2023-05-05T21:30:54.854Z,4.87
2023-05-05T21:33:34.005Z,4.93
2023-05-05T21:36:01.767Z,5.27
2023-05-05T21:38:29.514Z,5.05
2023-05-05T21:40:57.969Z,5.10
2023-05-05T21:43:28.561Z,4.38
2023-05-05T21:46:00.017Z,4.47
2023-05-05T21:48:28.080Z,4.70
2023-05-05T21:50:57.104Z,4.55
2023-05-05T21:53:24.900Z,5.27
2023-05-05T21:55:52.630Z,5.95
2023-05-05T21:58:20.380Z,6.03
2023-05-05T22:00:50.082Z,4.90
2023-05-05T22:03:18.016Z,5.77
2023-05-05T22:05:46.163Z,4.47
2023-05-05T22:08:15.224Z,5.78
2023-05-05T22:10:42.990Z,5.53
2023-05-05T22:13:11.359Z,5.43
2023-05-05T22:15:46.743Z,5.07
2023-05-05T22:18:15.141Z,5.13
2023-05-05T22:20:43.215Z,5.65
2023-05-05T22:23:11.181Z,5.22
2023-05-05T22:25:40.302Z,5.97
2023-05-05T22:28:07.991Z,5.03
2023-05-05T22:30:35.682Z,5.33
2023-05-05T22:33:03.638Z,6.57
2023-05-05T22:35:32.107Z,7.00
2023-05-05T22:38:01.430Z,6.50
2023-05-05T22:40:29.261Z,6.67
2023-05-05T22:42:58.329Z,6.57
2023-05-05T22:45:26.263Z,6.00
2023-05-05T22:47:55.122Z,6.95
2023-05-05T22:50:22.832Z,5.97
2023-05-05T22:52:50.568Z,5.97
2023-05-05T22:55:18.207Z,6.40
2023-05-05T22:57:46.029Z,6.63
2023-05-05T23:00:15.440Z,6.80
2023-05-05T23:02:43.182Z,6.13
2023-05-05T23:05:11.484Z,7.68
2023-05-05T23:07:39.427Z,9.05
2023-05-05T23:10:08.034Z,10.45
2023-05-05T23:12:35.783Z,11.43
2023-05-05T23:15:03.562Z,11.63
2023-05-05T23:17:32.702Z,8.60
2023-05-05T23:20:00.438Z,10.57
2023-05-05T23:22:28.136Z,8.30
2023-05-05T23:24:55.796Z,8.20
2023-05-05T23:27:23.954Z,7.23
2023-05-05T23:29:51.665Z,8.52
2023-05-05T23:32:19.404Z,8.90
2023-05-05T23:34:48.588Z,8.33
2023-05-05T23:37:16.285Z,8.57
2023-05-05T23:39:43.964Z,9.50
2023-05-05T23:42:11.695Z,8.67
2023-05-05T23:44:39.321Z,10.00
2023-05-05T23:47:07.141Z,8.17
2023-05-05T23:49:34.753Z,12.00
2023-05-05T23:52:03.813Z,10.63
2023-05-05T23:54:31.451Z,8.30
2023-05-05T23:57:00.231Z,10.80
2023-05-05T23:59:27.923Z,8.97
